createdAt,value
2022-12-19T00:02:20.041Z,22.40
2022-12-19T00:04:46.733Z,20.48
2022-12-19T00:07:13.314Z,24.20
2022-12-19T00:09:40.074Z,20.38
2022-12-19T00:12:06.735Z,22.45
2022-12-19T00:14:35.315Z,20.83
2022-12-19T00:17:02.108Z,22.73
2022-12-19T00:19:29.035Z,24.20
2022-12-19T00:21:55.599Z,21.95
2022-12-19T00:24:22.200Z,20.75
2022-12-19T00:26:49.168Z,22.50
2022-12-19T00:29:16.230Z,23.35
2022-12-19T00:31:43.027Z,21.83
2022-12-19T00:34:09.762Z,24.23
2022-12-19T00:36:36.369Z,21.58
2022-12-19T00:39:05.719Z,23.10
2022-12-19T00:41:35.636Z,20.73
2022-12-19T00:44:07.256Z,21.45
2022-12-19T00:46:34.451Z,20.52
2022-12-19T00:49:01.235Z,26.00
2022-12-19T00:51:31.026Z,26.73
2022-12-19T00:53:57.898Z,23.10
2022-12-19T00:56:29.060Z,21.33
2022-12-19T00:58:55.928Z,22.92
2022-12-19T01:01:25.835Z,22.23
2022-12-19T01:04:26.691Z,19.27
2022-12-19T01:06:39.204Z,21.13
2022-12-19T01:09:07.820Z,19.65
2022-12-19T01:11:54.361Z,23.48
2022-12-19T01:14:23.232Z,19.52
2022-12-19T01:16:50.712Z,21.83
2022-12-19T01:19:17.446Z,23.15
2022-12-19T01:21:44.131Z,21.92
2022-12-19T01:24:11.216Z,22.20
2022-12-19T01:26:37.814Z,23.05
2022-12-19T01:29:04.987Z,22.55
2022-12-19T01:31:32.648Z,21.13
2022-12-19T01:34:00.286Z,21.38
2022-12-19T01:36:28.241Z,21.40
2022-12-19T01:38:57.048Z,21.25
2022-12-19T01:41:23.785Z,20.30
2022-12-19T01:43:57.158Z,21.52
2022-12-19T01:46:29.000Z,25.25
2022-12-19T01:48:56.337Z,21.25
2022-12-19T01:51:24.611Z,24.13
2022-12-19T01:53:54.658Z,23.23
2022-12-19T01:56:24.115Z,21.75
2022-12-19T01:58:50.876Z,22.15
2022-12-19T02:01:24.107Z,22.48
2022-12-19T02:03:50.757Z,23.80
2022-12-19T02:06:17.429Z,21.52
2022-12-19T02:08:46.094Z,21.45
2022-12-19T02:11:12.680Z,19.77
2022-12-19T02:13:39.385Z,23.88
2022-12-19T02:16:33.727Z,19.95
2022-12-19T02:19:25.003Z,22.52
2022-12-19T02:22:06.922Z,23.35
2022-12-19T02:25:04.717Z,21.65
2022-12-19T02:27:56.170Z,21.15
2022-12-19T02:31:02.797Z,20.67
2022-12-19T02:33:43.486Z,22.70
2022-12-19T02:36:18.774Z,26.08
2022-12-19T02:38:51.488Z,21.65
2022-12-19T02:41:22.268Z,22.13
2022-12-19T02:43:49.615Z,23.15
2022-12-19T02:46:20.504Z,24.10
2022-12-19T02:48:47.207Z,26.55
2022-12-19T02:51:14.023Z,25.30
2022-12-19T02:53:40.884Z,23.70
2022-12-19T02:56:31.376Z,25.30
2022-12-19T02:59:21.237Z,26.65
2022-12-19T03:01:57.679Z,25.40
2022-12-19T03:04:54.266Z,29.20
2022-12-19T03:07:30.318Z,26.98
2022-12-19T03:10:05.282Z,24.35
2022-12-19T03:12:36.959Z,22.75
2022-12-19T03:15:03.819Z,27.38
2022-12-19T03:17:33.901Z,25.83
2022-12-19T03:20:00.627Z,22.77
2022-12-19T03:22:27.277Z,30.30
2022-12-19T03:24:53.874Z,24.00
2022-12-19T03:27:24.965Z,27.75
2022-12-19T03:29:59.500Z,23.25
2022-12-19T03:32:26.199Z,21.92
2022-12-19T03:34:57.733Z,23.20
2022-12-19T03:37:24.702Z,18.50
2022-12-19T03:39:54.268Z,21.30
2022-12-19T03:42:41.126Z,23.50
2022-12-19T03:45:08.037Z,23.25
2022-12-19T03:47:39.507Z,26.00
2022-12-19T03:50:06.529Z,22.88
2022-12-19T03:52:39.872Z,20.92
2022-12-19T03:55:13.588Z,22.15
2022-12-19T03:57:43.037Z,23.40
2022-12-19T04:00:12.790Z,28.33
2022-12-19T04:02:41.409Z,22.67
2022-12-19T04:05:10.419Z,24.65
2022-12-19T04:07:37.061Z,21.30
2022-12-19T04:10:06.416Z,22.33
2022-12-19T04:12:38.127Z,20.75
2022-12-19T04:15:05.414Z,23.35
2022-12-19T04:17:41.063Z,24.42
2022-12-19T04:20:10.888Z,23.50
2022-12-19T04:22:44.410Z,22.50
2022-12-19T04:25:13.861Z,25.27
2022-12-19T04:27:43.560Z,23.00
2022-12-19T04:30:12.633Z,25.85
2022-12-19T04:32:39.383Z,23.63
2022-12-19T04:35:06.170Z,24.30
2022-12-19T04:37:32.871Z,22.30
2022-12-19T04:39:59.807Z,23.58
2022-12-19T04:42:26.507Z,22.90
2022-12-19T04:44:53.139Z,23.98
2022-12-19T04:47:19.783Z,25.02
2022-12-19T04:49:46.423Z,23.73
2022-12-19T04:52:13.193Z,25.08
2022-12-19T04:54:39.810Z,22.63
2022-12-19T04:57:06.734Z,23.30
2022-12-19T04:59:33.411Z,22.83
2022-12-19T05:02:00.160Z,23.10
2022-12-19T05:04:27.062Z,21.98
2022-12-19T05:06:53.979Z,20.63
2022-12-19T05:09:20.667Z,22.20
2022-12-19T05:11:47.292Z,21.02
2022-12-19T05:14:15.557Z,22.35
2022-12-19T05:16:42.267Z,20.80
2022-12-19T05:19:08.868Z,21.25
2022-12-19T05:21:35.534Z,20.60
2022-12-19T05:24:02.205Z,22.88
2022-12-19T05:26:28.902Z,22.33
2022-12-19T05:28:55.661Z,20.10
2022-12-19T05:31:22.318Z,22.05
2022-12-19T05:33:49.390Z,20.77
2022-12-19T05:36:16.409Z,21.23
2022-12-19T05:38:43.066Z,20.73
2022-12-19T05:41:10.936Z,20.02
2022-12-19T05:43:37.644Z,23.77
2022-12-19T05:46:05.038Z,20.83
2022-12-19T05:48:31.731Z,20.02
2022-12-19T05:50:58.434Z,20.65
2022-12-19T05:53:27.407Z,19.92
2022-12-19T05:56:04.032Z,19.02
2022-12-19T05:58:30.931Z,20.75
2022-12-19T06:01:03.041Z,25.10
2022-12-19T06:03:29.692Z,20.90
2022-12-19T06:05:56.642Z,19.38
2022-12-19T06:08:23.297Z,23.10
2022-12-19T06:10:49.924Z,21.67
2022-12-19T06:13:19.742Z,21.42
2022-12-19T06:15:50.187Z,21.00
2022-12-19T06:18:16.832Z,20.55
2022-12-19T06:20:43.473Z,19.73
2022-12-19T06:23:10.075Z,20.42
2022-12-19T06:25:37.638Z,19.65
2022-12-19T06:28:04.489Z,19.05
2022-12-19T06:30:31.210Z,21.60
2022-12-19T06:32:57.802Z,20.52
2022-12-19T06:35:24.435Z,19.60
2022-12-19T06:37:51.001Z,20.05
2022-12-19T06:40:37.582Z,20.13
2022-12-19T06:43:04.346Z,18.83
2022-12-19T06:45:31.278Z,20.27
2022-12-19T06:47:58.015Z,20.25
2022-12-19T06:50:26.182Z,19.77
2022-12-19T06:52:52.776Z,19.67
2022-12-19T06:55:19.825Z,20.00
2022-12-19T06:57:46.769Z,18.52
2022-12-19T07:00:14.255Z,17.65
2022-12-19T07:02:43.395Z,19.63
2022-12-19T07:05:10.110Z,19.88
2022-12-19T07:07:36.738Z,19.67
2022-12-19T07:10:04.813Z,18.73
2022-12-19T07:12:31.463Z,20.73
2022-12-19T07:14:58.101Z,17.80
2022-12-19T07:17:24.793Z,20.10
2022-12-19T07:19:53.329Z,19.77
2022-12-19T07:22:20.025Z,18.63
2022-12-19T07:24:46.683Z,18.83
2022-12-19T07:27:13.338Z,19.33
2022-12-19T07:29:40.086Z,17.95
2022-12-19T07:32:06.792Z,18.83
2022-12-19T07:34:33.503Z,18.58
2022-12-19T07:37:00.194Z,17.23
2022-12-19T07:39:27.085Z,17.52
2022-12-19T07:41:53.774Z,17.20
2022-12-19T07:44:20.373Z,16.58
2022-12-19T07:46:47.915Z,16.00
2022-12-19T07:49:19.595Z,17.02
2022-12-19T07:51:48.997Z,17.33
2022-12-19T07:54:15.690Z,15.32
2022-12-19T07:56:42.281Z,18.90
2022-12-19T07:59:09.453Z,16.65
2022-12-19T08:01:36.087Z,17.90
2022-12-19T08:04:02.826Z,16.70
2022-12-19T08:06:29.859Z,15.63
2022-12-19T08:08:57.047Z,16.13
2022-12-19T08:11:27.311Z,17.65
2022-12-19T08:13:54.441Z,17.08
2022-12-19T08:16:21.323Z,17.60
2022-12-19T08:18:48.164Z,18.08
2022-12-19T08:21:14.906Z,16.20
2022-12-19T08:23:41.603Z,14.52
2022-12-19T08:26:11.620Z,16.17
2022-12-19T08:28:38.397Z,15.70
2022-12-19T08:31:07.601Z,15.18
2022-12-19T08:33:34.549Z,14.65
2022-12-19T08:36:06.246Z,17.50
2022-12-19T08:38:32.909Z,16.75
2022-12-19T08:40:59.626Z,14.35
2022-12-19T08:43:27.224Z,14.77
2022-12-19T08:45:54.113Z,14.25
2022-12-19T08:48:20.852Z,15.30
2022-12-19T08:50:52.739Z,13.50
2022-12-19T08:53:25.793Z,14.68
2022-12-19T08:55:56.548Z,11.88
2022-12-19T08:58:24.057Z,11.55
2022-12-19T09:00:57.530Z,10.40
2022-12-19T09:03:29.666Z,12.23
2022-12-19T09:06:18.728Z,11.57
2022-12-19T09:08:46.519Z,11.70
2022-12-19T09:11:14.863Z,13.32
2022-12-19T09:13:41.758Z,11.27
2022-12-19T09:16:14.410Z,10.57
2022-12-19T09:18:47.872Z,11.73
2022-12-19T09:21:15.206Z,9.75
2022-12-19T09:23:42.115Z,11.23
2022-12-19T09:26:11.387Z,11.38
2022-12-19T09:28:38.726Z,10.35
2022-12-19T09:31:07.173Z,10.95
2022-12-19T09:33:41.238Z,11.23
2022-12-19T09:36:13.747Z,13.20
2022-12-19T09:38:40.506Z,13.30
2022-12-19T09:41:31.586Z,13.75
2022-12-19T09:44:38.085Z,13.18
2022-12-19T09:47:13.469Z,12.20
2022-12-19T09:49:43.482Z,12.85
2022-12-19T09:52:19.050Z,12.20
2022-12-19T09:54:56.215Z,12.93
2022-12-19T09:57:27.660Z,11.60
2022-12-19T09:59:56.951Z,15.82
2022-12-19T10:06:53.625Z,16.50
2022-12-19T10:08:19.344Z,11.88
2022-12-19T10:12:37.861Z,12.68
2022-12-19T10:17:28.616Z,10.95
2022-12-19T10:20:03.686Z,10.30
2022-12-19T10:22:55.858Z,10.90
2022-12-19T10:26:01.505Z,9.77
2022-12-19T10:28:48.407Z,12.70
2022-12-19T10:31:22.022Z,9.88
2022-12-19T10:34:07.801Z,9.82
2022-12-19T10:37:12.907Z,10.93
2022-12-19T10:39:34.161Z,9.98
2022-12-19T10:42:11.244Z,12.40
2022-12-19T10:44:38.519Z,10.73
2022-12-19T10:47:05.201Z,9.75
2022-12-19T10:49:32.175Z,9.90
2022-12-19T10:52:00.785Z,10.15
2022-12-19T10:54:43.832Z,9.05
2022-12-19T10:57:29.935Z,9.23
2022-12-19T10:59:58.337Z,9.07
2022-12-19T11:02:45.629Z,9.38
2022-12-19T11:05:22.444Z,8.65
2022-12-19T11:11:27.193Z,8.90
2022-12-19T11:17:11.722Z,9.43
2022-12-19T11:21:06.087Z,8.68
2022-12-19T11:29:34.684Z,8.35
2022-12-19T11:29:42.129Z,9.40
2022-12-19T11:30:45.425Z,9.20
2022-12-19T11:30:48.368Z,8.23
2022-12-19T11:34:31.016Z,11.48
2022-12-19T11:37:19.879Z,13.32
2022-12-19T11:39:53.226Z,12.55
2022-12-19T11:42:41.577Z,11.98
2022-12-19T11:45:14.896Z,11.68
2022-12-19T11:47:47.403Z,11.32
2022-12-19T11:50:18.389Z,12.55
2022-12-19T11:53:16.795Z,12.60
2022-12-19T11:55:51.152Z,13.07
2022-12-19T11:58:17.765Z,16.90
2022-12-19T12:00:55.835Z,23.17
2022-12-19T12:04:03.326Z,13.05
2022-12-19T12:06:34.457Z,11.45
2022-12-19T12:14:43.112Z,11.68
2022-12-19T12:20:01.587Z,10.52
2022-12-19T12:29:21.029Z,11.57
2022-12-19T12:31:15.728Z,11.80
2022-12-19T12:31:23.833Z,10.95
2022-12-19T12:31:42.623Z,10.25
2022-12-19T12:35:09.496Z,9.40
2022-12-19T12:35:45.385Z,14.38
2022-12-19T12:37:15.899Z,14.55
2022-12-19T12:38:37.292Z,11.23
2022-12-19T12:41:13.793Z,12.60
2022-12-19T12:46:38.263Z,12.35
2022-12-19T12:49:07.134Z,13.85
2022-12-19T12:51:33.798Z,15.38
2022-12-19T12:54:05.009Z,15.05
2022-12-19T12:56:35.542Z,17.05
2022-12-19T13:01:40.903Z,18.23
2022-12-19T13:04:21.510Z,15.85
2022-12-19T13:09:29.736Z,15.32
2022-12-19T13:12:22.153Z,13.95
2022-12-19T13:14:49.967Z,14.82
2022-12-19T13:17:44.269Z,13.63
2022-12-19T13:20:39.321Z,15.90
2022-12-19T13:23:28.983Z,14.30
2022-12-19T13:25:55.632Z,14.07
2022-12-19T13:39:49.182Z,14.60
2022-12-19T13:40:08.757Z,17.10
2022-12-19T13:43:09.322Z,17.17
2022-12-19T13:45:36.840Z,11.40
2022-12-19T13:48:05.176Z,10.23
2022-12-19T13:50:37.439Z,20.90
2022-12-19T13:53:11.541Z,18.83
2022-12-19T13:55:39.725Z,21.90
2022-12-19T13:58:06.412Z,21.85
2022-12-19T14:00:36.085Z,22.20
2022-12-19T14:03:03.149Z,22.65
2022-12-19T14:06:15.369Z,21.08
2022-12-19T14:08:21.837Z,21.30
2022-12-19T14:11:55.084Z,18.15
2022-12-19T14:14:08.158Z,17.83
2022-12-19T14:16:44.667Z,18.80
2022-12-19T14:19:21.167Z,17.02
2022-12-19T14:22:08.802Z,19.60
2022-12-19T14:24:34.523Z,17.35
2022-12-19T14:28:21.859Z,16.92
2022-12-19T14:30:27.367Z,18.95
2022-12-19T14:33:47.268Z,18.63
2022-12-19T14:36:11.336Z,18.38
2022-12-19T14:39:23.670Z,20.55
2022-12-19T14:41:08.180Z,19.00
2022-12-19T14:43:58.648Z,21.80
2022-12-19T14:54:07.890Z,19.50
2022-12-19T14:54:15.965Z,22.17
2022-12-19T14:54:31.210Z,22.33
2022-12-19T14:56:13.131Z,20.02
2022-12-19T14:58:56.143Z,20.98
2022-12-19T15:01:25.256Z,20.63
2022-12-19T15:04:48.070Z,21.98
2022-12-19T15:07:06.674Z,21.60
2022-12-19T15:10:58.873Z,22.10
2022-12-19T15:14:48.215Z,23.15
2022-12-19T15:15:56.540Z,26.45
2022-12-19T15:18:26.789Z,24.10
2022-12-19T15:20:56.297Z,21.42
2022-12-19T15:23:23.246Z,23.58
2022-12-19T15:26:07.280Z,29.00
2022-12-19T15:28:42.064Z,25.80
2022-12-19T15:31:43.967Z,22.92
2022-12-19T15:34:41.546Z,21.95
2022-12-19T15:37:13.885Z,20.27
2022-12-19T15:39:40.961Z,22.10
2022-12-19T15:42:27.420Z,23.25
2022-12-19T15:44:55.649Z,22.27
2022-12-19T15:47:29.884Z,22.55
2022-12-19T15:49:58.191Z,24.55
2022-12-19T15:52:25.607Z,22.30
2022-12-19T15:54:52.354Z,23.38
2022-12-19T15:57:27.695Z,21.85
2022-12-19T15:59:54.310Z,25.15
2022-12-19T16:02:24.327Z,26.15
2022-12-19T16:04:51.305Z,30.58
2022-12-19T16:07:20.001Z,26.00
2022-12-19T16:09:46.701Z,25.52
2022-12-19T16:12:16.169Z,26.00
2022-12-19T16:14:43.568Z,22.02
2022-12-19T16:17:15.024Z,24.05
2022-12-19T16:19:41.562Z,24.92
2022-12-19T16:22:18.150Z,26.75
2022-12-19T16:24:44.751Z,27.13
2022-12-19T16:27:19.240Z,24.95
2022-12-19T16:29:46.108Z,25.50
2022-12-19T16:32:13.456Z,27.33
2022-12-19T16:34:40.115Z,24.00
2022-12-19T16:37:06.946Z,25.40
2022-12-19T16:39:33.566Z,25.98
2022-12-19T16:42:00.169Z,22.15
2022-12-19T16:44:26.834Z,24.73
2022-12-19T16:46:53.596Z,23.40
2022-12-19T16:49:22.781Z,24.25
2022-12-19T16:51:49.592Z,23.65
2022-12-19T16:54:16.439Z,25.17
2022-12-19T16:56:48.010Z,24.13
2022-12-19T16:59:33.461Z,24.35
2022-12-19T17:02:00.383Z,23.63
2022-12-19T17:04:27.375Z,22.73
2022-12-19T17:06:54.297Z,24.27
2022-12-19T17:09:22.902Z,23.88
2022-12-19T17:11:52.171Z,22.42
2022-12-19T17:14:20.906Z,23.88
2022-12-19T17:16:47.881Z,22.38
2022-12-19T17:19:19.126Z,22.83
2022-12-19T17:21:45.841Z,22.55
2022-12-19T17:24:13.556Z,23.05
2022-12-19T17:26:40.197Z,22.55
2022-12-19T17:29:06.802Z,22.55
2022-12-19T17:31:38.061Z,23.85
2022-12-19T17:34:08.281Z,21.67
2022-12-19T17:36:37.870Z,23.70
2022-12-19T17:39:25.281Z,22.80
2022-12-19T17:41:57.794Z,21.92
2022-12-19T17:46:51.292Z,22.65
2022-12-19T17:49:33.199Z,23.50
2022-12-19T17:51:59.984Z,21.63
2022-12-19T17:54:27.430Z,23.77
2022-12-19T17:56:54.815Z,20.63
2022-12-19T17:59:21.514Z,20.65
2022-12-19T18:01:48.472Z,18.52
2022-12-19T18:04:17.564Z,17.52
2022-12-19T18:06:44.723Z,19.23
2022-12-19T18:09:20.111Z,16.17
2022-12-19T18:11:47.841Z,15.70
2022-12-19T18:14:14.540Z,18.20
2022-12-19T18:16:41.276Z,13.18
2022-12-19T18:19:12.860Z,13.35
2022-12-19T18:21:39.488Z,11.80
2022-12-19T18:24:10.740Z,12.02
2022-12-19T18:26:37.407Z,12.93
2022-12-19T18:29:04.287Z,13.23
2022-12-19T18:31:31.003Z,13.65
2022-12-19T18:34:05.380Z,13.25
2022-12-19T18:36:36.998Z,12.27
2022-12-19T18:39:03.653Z,11.30
2022-12-19T18:41:32.001Z,12.95
2022-12-19T18:43:58.619Z,13.45
2022-12-19T18:46:26.882Z,11.93
2022-12-19T18:48:53.826Z,14.13
2022-12-19T18:51:23.085Z,16.00
2022-12-19T18:53:50.119Z,12.75
2022-12-19T18:56:16.901Z,11.77
2022-12-19T18:58:43.577Z,9.35
2022-12-19T19:01:13.762Z,11.02
2022-12-19T19:03:40.890Z,10.80
2022-12-19T19:06:25.563Z,10.82
2022-12-19T19:08:52.474Z,13.27
2022-12-19T19:11:20.362Z,12.40
2022-12-19T19:13:46.968Z,12.77
2022-12-19T19:16:17.268Z,12.55
2022-12-19T19:18:44.703Z,12.95
2022-12-19T19:21:12.390Z,12.43
2022-12-19T19:23:46.878Z,12.68
2022-12-19T19:26:13.516Z,11.63
2022-12-19T19:28:40.205Z,12.07
2022-12-19T19:31:08.865Z,11.38
2022-12-19T19:33:37.908Z,12.00
2022-12-19T19:36:12.029Z,12.20
2022-12-19T19:38:39.989Z,11.10
2022-12-19T19:41:06.614Z,13.80
2022-12-19T19:43:35.510Z,12.88
2022-12-19T19:46:02.686Z,13.32
2022-12-19T19:48:29.704Z,15.63
2022-12-19T19:50:56.764Z,14.20
2022-12-19T19:53:23.555Z,13.77
2022-12-19T19:56:05.681Z,15.57
2022-12-19T19:58:32.516Z,14.63
2022-12-19T20:00:59.333Z,18.17
2022-12-19T20:03:26.285Z,18.30
2022-12-19T20:06:00.701Z,18.23
2022-12-19T20:08:27.884Z,23.73
2022-12-19T20:10:56.795Z,22.55
2022-12-19T20:13:23.455Z,22.20
2022-12-19T20:15:50.660Z,17.90
2022-12-19T20:18:17.720Z,20.23
2022-12-19T20:20:46.772Z,19.67
2022-12-19T20:23:13.375Z,19.55
2022-12-19T20:25:42.055Z,21.33
2022-12-19T20:28:08.710Z,17.35
2022-12-19T20:30:37.030Z,13.63
2022-12-19T20:33:03.749Z,15.98
2022-12-19T20:35:30.378Z,17.42
2022-12-19T20:37:57.024Z,15.43
2022-12-19T20:40:23.676Z,17.35
2022-12-19T20:42:50.392Z,15.93
2022-12-19T20:45:17.196Z,15.98
2022-12-19T20:47:43.867Z,16.05
2022-12-19T20:50:12.868Z,13.93
2022-12-19T20:52:39.473Z,16.20
2022-12-19T20:55:06.717Z,16.80
2022-12-19T20:57:33.371Z,15.10
2022-12-19T21:00:00.013Z,16.35
2022-12-19T21:02:26.886Z,13.98
2022-12-19T21:04:53.733Z,16.42
2022-12-19T21:07:20.337Z,13.20
2022-12-19T21:09:47.899Z,13.38
2022-12-19T21:12:14.606Z,14.68
2022-12-19T21:14:41.245Z,13.85
2022-12-19T21:17:07.976Z,14.00
2022-12-19T21:19:34.570Z,18.40
2022-12-19T21:22:01.184Z,15.68
2022-12-19T21:24:29.184Z,15.90
2022-12-19T21:26:58.248Z,12.40
2022-12-19T21:29:25.379Z,14.13
2022-12-19T21:31:52.082Z,13.50
2022-12-19T21:34:18.803Z,13.57
2022-12-19T21:36:45.445Z,13.55
2022-12-19T21:39:13.046Z,13.55
2022-12-19T21:41:39.664Z,13.68
2022-12-19T21:44:06.289Z,13.07
2022-12-19T21:46:33.407Z,12.73
2022-12-19T21:49:00.645Z,12.98
2022-12-19T21:51:28.703Z,15.27
2022-12-19T21:53:56.538Z,12.80
2022-12-19T21:56:31.720Z,13.70
2022-12-19T21:59:00.584Z,14.65
2022-12-19T22:01:27.706Z,15.07
2022-12-19T22:03:59.815Z,16.30
2022-12-19T22:06:28.869Z,15.02
2022-12-19T22:08:55.557Z,14.38
2022-12-19T22:11:22.220Z,14.20
2022-12-19T22:13:49.177Z,17.50
2022-12-19T22:16:15.991Z,16.70
2022-12-19T22:18:42.773Z,16.10
2022-12-19T22:21:11.544Z,12.32
2022-12-19T22:23:38.182Z,13.68
2022-12-19T22:26:07.182Z,11.15
2022-12-19T22:28:36.140Z,11.93
2022-12-19T22:31:03.277Z,11.43
2022-12-19T22:33:29.994Z,9.60
2022-12-19T22:35:56.853Z,10.80
2022-12-19T22:38:23.492Z,10.65
2022-12-19T22:40:50.196Z,10.63
2022-12-19T22:43:16.825Z,11.75
2022-12-19T22:45:43.465Z,10.27
2022-12-19T22:48:11.135Z,10.88
2022-12-19T22:50:37.838Z,11.15
2022-12-19T22:53:08.156Z,10.38
2022-12-19T22:55:39.172Z,9.70
2022-12-19T22:58:05.809Z,9.48
2022-12-19T23:00:32.499Z,10.13
2022-12-19T23:02:59.325Z,10.05
2022-12-19T23:05:26.196Z,11.70
2022-12-19T23:07:52.836Z,9.65
2022-12-19T23:10:19.423Z,9.02
2022-12-19T23:12:46.025Z,10.32
2022-12-19T23:15:12.777Z,10.45
2022-12-19T23:17:39.466Z,10.63
2022-12-19T23:20:08.529Z,10.80
2022-12-19T23:22:35.186Z,10.60
2022-12-19T23:25:02.068Z,9.20
2022-12-19T23:27:28.704Z,10.50
2022-12-19T23:29:55.321Z,9.15
2022-12-19T23:32:22.104Z,9.90
2022-12-19T23:34:48.835Z,9.77
2022-12-19T23:37:15.464Z,9.30
2022-12-19T23:39:42.129Z,9.15
2022-12-19T23:42:08.972Z,8.77
2022-12-19T23:44:35.942Z,9.57
2022-12-19T23:47:03.759Z,8.68
2022-12-19T23:49:31.690Z,8.75
2022-12-19T23:51:58.397Z,8.63
2022-12-19T23:54:25.056Z,9.68
2022-12-19T23:56:53.305Z,9.20
2022-12-19T23:59:19.924Z,9.18
